Moorpark, California
Current Conditions -  °F | °C
As of 2:55 PM on Tuesday 27 Jan 2015 (Local Time) from KCMA Reporting Station
Clear Clear  
Wind Chill: 68°   Ceiling: Unl
Heat Index: 68°   Visibility: 10mi
Dew Point: 50°   Wind: 13mph
Humidity: 52%   Direction: 280°W
Pressure: 30.16"   Gusts: NA
Location:  34.29°N, 118.88°W
Report Text: KCMA 272255Z 28011KT 10SM CLR 20/10 A3016 RMK AO2 SLP220 T02000100
Loading
Personal Weather Stations






























Interactive Weather Map New forecast layout! Learn more

10-Day Weather Forecast

Advertisements
Track Severe Weather on mobile